Time;durP1;ratioP1;P1;durP2;ratioP2;P2;SDS_P1;SDS_P2;PMS_P1;PMS_P2;Temp;Humidity;BMP_temperature;BMP_pressure;BME280_temperature;BME280_humidity;BME280_pressure;Samples;Min_cycle;Max_cycle;Signal;HPM_P1;HPM_P2
2022/07/04 00:00:51;;;;;;;16.90;5.40;;;;;;;;;;5084928;28;20531;-69
2022/07/04 00:03:16;;;;;;;16.83;6.85;;;16.70;99.90;;;;;;5035292;28;20037;-69
2022/07/04 00:05:42;;;;;;;14.38;6.35;;;15.90;99.90;;;;;;5042076;28;20037;-69
2022/07/04 00:08:08;;;;;;;13.60;6.05;;;;;;;;;;5043206;28;20037;-68
2022/07/04 00:10:34;;;;;;;11.63;5.97;;;;;;;;;;5052976;28;20081;-68
2022/07/04 00:13:01;;;;;;;11.32;6.38;;;;;;;;;;5065434;28;20094;-69
2022/07/04 00:15:26;;;;;;;12.55;6.10;;;14.80;99.90;;;;;;5066284;28;20047;-69
2022/07/04 00:17:52;;;;;;;11.68;6.47;;;15.80;99.90;;;;;;5051501;28;20040;-69
2022/07/04 00:20:18;;;;;;;12.30;6.18;;;15.30;99.90;;;;;;5035001;28;20052;-69
2022/07/04 00:22:44;;;;;;;11.80;5.90;;;;;;;;;;5045720;28;20052;-69
2022/07/04 00:25:10;;;;;;;13.07;5.45;;;15.40;99.90;;;;;;5068230;28;20512;-68
2022/07/04 00:27:36;;;;;;;10.63;5.50;;;16.80;99.90;;;;;;5052190;28;20037;-69
2022/07/04 00:30:02;;;;;;;10.07;5.28;;;;;;;;;;5055276;28;20040;-69
2022/07/04 00:32:28;;;;;;;11.45;6.20;;;;;;;;;;5062954;28;20525;-69
2022/07/04 00:34:54;;;;;;;11.88;5.90;;;;;;;;;;5068560;28;20044;-69
2022/07/04 00:37:20;;;;;;;16.30;6.25;;;15.70;99.90;;;;;;5073244;28;20068;-69
2022/07/04 00:39:46;;;;;;;16.80;5.85;;;;;;;;;;5049990;28;20129;-68
2022/07/04 00:42:13;;;;;;;14.05;6.55;;;;;;;;;;5066419;28;20050;-69
2022/07/04 00:44:39;;;;;;;12.82;6.75;;;14.60;99.90;;;;;;5069380;28;20132;-69
2022/07/04 00:47:05;;;;;;;9.65;5.85;;;15.50;99.90;;;;;;5068971;28;20120;-69
2022/07/04 00:49:31;;;;;;;13.30;6.45;;;;;;;;;;5055065;28;20458;-69
2022/07/04 00:51:58;;;;;;;13.48;8.07;;;14.40;99.90;;;;;;5057343;28;20044;-68
2022/07/04 00:54:29;;;;;;;15.85;5.80;;;15.20;99.90;;;;;;5057322;28;20405;-69
2022/07/04 00:56:56;;;;;;;13.63;6.50;;;15.20;98.60;;;;;;5052617;28;20052;-69
2022/07/04 00:59:22;;;;;;;13.35;6.55;;;;;;;;;;5058823;28;20497;-69
2022/07/04 01:01:49;;;;;;;18.75;7.63;;;15.80;99.90;;;;;;5051285;28;20091;-69
2022/07/04 01:04:15;;;;;;;12.93;7.32;;;;;;;;;;5038222;28;20140;-68
2022/07/04 01:06:42;;;;;;;17.30;7.25;;;15.30;99.00;;;;;;5061777;28;20512;-70
2022/07/04 01:09:08;;;;;;;15.63;6.90;;;;;;;;;;5056235;28;20051;-69
2022/07/04 01:11:34;;;;;;;14.05;7.25;;;;;;;;;;5060919;28;20052;-69
2022/07/04 01:14:01;;;;;;;19.42;7.57;;;;;;;;;;5065407;28;20422;-69
2022/07/04 01:16:28;;;;;;;14.98;7.13;;;;;;;;;;5079433;28;20048;-69
2022/07/04 01:18:55;;;;;;;15.45;8.07;;;14.40;99.90;;;;;;5056797;28;20124;-69
2022/07/04 01:21:21;;;;;;;16.70;7.57;;;;;;;;;;5046649;28;20040;-69
2022/07/04 01:23:46;;;;;;;16.50;7.32;;;16.10;99.90;;;;;;5055682;28;20142;-68
2022/07/04 01:26:12;;;;;;;16.50;7.78;;;16.00;99.90;;;;;;5066695;28;20128;-68
2022/07/04 01:28:39;;;;;;;18.80;7.57;;;;;;;;;;5038041;28;20124;-68
2022/07/04 01:31:05;;;;;;;14.85;7.53;;;;;;;;;;5083470;28;20037;-69
2022/07/04 01:33:31;;;;;;;12.75;7.65;;;;;;;;;;5070889;28;20067;-69
2022/07/04 01:35:57;;;;;;;14.00;7.60;;;14.50;99.90;;;;;;5070678;28;20041;-69
2022/07/04 01:38:23;;;;;;;16.52;7.85;;;14.80;99.90;;;;;;5072063;28;20043;-69
2022/07/04 01:40:49;;;;;;;19.77;7.80;;;;;;;;;;5072082;28;20032;-69
2022/07/04 01:43:15;;;;;;;13.32;7.65;;;15.70;99.90;;;;;;5059281;28;20523;-70
2022/07/04 01:45:41;;;;;;;10.82;6.55;;;;;;;;;;5055048;28;20045;-70
2022/07/04 01:48:09;;;;;;;12.65;7.25;;;15.00;99.70;;;;;;5056163;28;20032;-70
2022/07/04 01:50:35;;;;;;;13.48;7.35;;;14.90;99.80;;;;;;5055880;28;20036;-70
2022/07/04 01:53:02;;;;;;;20.23;8.80;;;16.00;99.90;;;;;;5069694;28;20037;-70
2022/07/04 01:55:28;;;;;;;14.70;7.47;;;15.20;99.90;;;;;;5054652;28;20048;-70
2022/07/04 01:57:55;;;;;;;17.02;7.85;;;;;;;;;;5054756;28;20481;-70
2022/07/04 02:03:06;;;;;;;16.67;7.38;;;15.20;99.90;;;;;;5057990;28;20090;-69
2022/07/04 02:05:31;;;;;;;13.55;7.43;;;14.20;99.90;;;;;;5054675;28;20045;-69
2022/07/04 02:07:57;;;;;;;15.73;7.35;;;15.10;99.90;;;;;;5067516;28;20044;-69
2022/07/04 02:10:23;;;;;;;19.13;6.25;;;14.60;99.90;;;;;;5061625;28;20040;-69
2022/07/04 02:13:01;;;;;;;12.65;7.05;;;14.80;99.90;;;;;;5064817;28;20033;-70
2022/07/04 02:15:35;;;;;;;17.60;7.10;;;14.90;99.90;;;;;;5055846;28;20039;-70
2022/07/04 02:18:01;;;;;;;16.75;7.13;;;15.80;99.90;;;;;;5067437;28;20048;-70
2022/07/04 02:20:28;;;;;;;19.50;6.72;;;;;;;;;;5058069;28;20052;-70
2022/07/04 02:22:54;;;;;;;11.30;6.63;;;15.80;99.90;;;;;;5080204;28;20079;-70
2022/07/04 02:25:20;;;;;;;17.17;6.95;;;;;;;;;;5071176;28;20115;-69
2022/07/04 02:27:46;;;;;;;17.00;6.97;;;;;;;;;;5068447;28;20122;-69
2022/07/04 02:30:13;;;;;;;18.98;6.97;;;15.80;99.90;;;;;;5071138;28;20032;-69
2022/07/04 02:32:39;;;;;;;15.00;6.88;;;14.90;99.90;;;;;;5066572;28;20477;-69
2022/07/04 02:35:05;;;;;;;15.10;6.50;;;15.40;99.90;;;;;;5070969;28;20040;-69
2022/07/04 02:37:31;;;;;;;15.93;5.43;;;;;;;;;;5070842;28;20044;-69
2022/07/04 02:39:57;;;;;;;17.92;7.05;;;;;;;;;;5070890;28;20094;-69
2022/07/04 02:42:23;;;;;;;15.75;7.13;;;15.80;99.90;;;;;;5064480;28;20525;-69
2022/07/04 02:44:49;;;;;;;15.88;6.72;;;;;;;;;;5058107;28;20094;-69
2022/07/04 02:47:16;;;;;;;12.80;7.22;;;14.90;99.90;;;;;;5053831;28;20048;-69
2022/07/04 02:49:42;;;;;;;12.48;6.25;;;;;;;;;;5036019;28;20040;-69
2022/07/04 02:52:08;;;;;;;10.77;6.03;;;13.70;99.90;;;;;;5066639;28;20388;-69
2022/07/04 02:54:34;;;;;;;17.83;5.80;;;15.10;99.90;;;;;;5023386;28;20033;-69
2022/07/04 02:57:00;;;;;;;16.45;6.95;;;;;;;;;;5052509;28;20037;-68
2022/07/04 02:59:26;;;;;;;20.42;7.32;;;;;;;;;;5068811;28;20048;-68
2022/07/04 03:01:52;;;;;;;26.77;6.65;;;;;;;;;;5057580;28;20401;-68
2022/07/04 03:04:18;;;;;;;19.23;6.72;;;;;;;;;;5083193;28;20110;-69
2022/07/04 03:06:44;;;;;;;15.20;7.10;;;15.60;99.90;;;;;;5061488;28;20056;-69
2022/07/04 03:09:10;;;;;;;16.08;6.90;;;;;;;;;;5035899;28;20454;-68
2022/07/04 03:11:36;;;;;;;11.88;6.03;;;14.60;99.90;;;;;;5061243;28;20044;-69
2022/07/04 03:14:02;;;;;;;18.30;7.00;;;;;;;;;;5064563;28;20036;-69
2022/07/04 03:16:28;;;;;;;15.90;6.65;;;15.40;99.90;;;;;;5058246;28;20497;-69
2022/07/04 03:18:53;;;;;;;14.63;6.65;;;15.30;99.90;;;;;;5052308;28;20058;-69
2022/07/04 03:21:20;;;;;;;16.10;7.72;;;;;;;;;;5061152;28;20531;-69
2022/07/04 03:23:57;;;;;;;18.67;6.47;;;;;;;;;;5070340;28;20042;-69
2022/07/04 03:26:32;;;;;;;13.93;6.80;;;15.00;99.90;;;;;;5069102;28;20041;-69
2022/07/04 03:28:59;;;;;;;12.98;7.15;;;14.80;99.90;;;;;;5059075;28;20600;-69
2022/07/04 03:31:26;;;;;;;12.30;6.88;;;15.80;99.90;;;;;;5061150;28;20036;-69
2022/07/04 03:33:52;;;;;;;19.02;7.50;;;;;;;;;;5066279;28;20041;-69
2022/07/04 03:36:19;;;;;;;14.23;7.10;;;13.80;99.90;;;;;;5054301;28;20033;-69
2022/07/04 03:38:45;;;;;;;17.63;7.00;;;;;;;;;;5061014;28;20080;-69
2022/07/04 03:41:12;;;;;;;14.57;7.68;;;;;;;;;;5056059;28;20041;-68
2022/07/04 03:43:38;;;;;;;16.83;7.28;;;;;;;;;;5065848;28;20366;-70
2022/07/04 03:46:04;;;;;;;12.50;7.22;;;;;;;;;;5059119;28;20101;-70
2022/07/04 03:48:30;;;;;;;15.93;8.00;;;;;;;;;;5068654;28;20059;-69
2022/07/04 03:50:57;;;;;;;14.77;7.40;;;;;;;;;;5061489;28;20116;-69
2022/07/04 03:53:22;;;;;;;13.63;7.30;;;13.90;99.90;;;;;;5060408;28;20032;-69
2022/07/04 03:55:48;;;;;;;17.40;7.05;;;;;;;;;;5069697;28;20036;-70
2022/07/04 03:58:15;;;;;;;21.23;8.23;;;;;;;;;;5068080;28;20037;-70
2022/07/04 04:00:44;;;;;;;17.95;7.03;;;;;;;;;;5070727;28;20099;-70
2022/07/04 04:05:55;;;;;;;18.73;7.75;;;14.70;99.90;;;;;;5073114;28;20078;-70
2022/07/04 04:08:21;;;;;;;17.70;7.05;;;;;;;;;;5040670;28;20120;-69
2022/07/04 04:10:47;;;;;;;16.48;6.82;;;15.60;99.90;;;;;;5056956;28;20087;-69
2022/07/04 04:13:13;;;;;;;18.27;7.45;;;;;;;;;;5059152;28;20072;-69
2022/07/04 04:15:39;;;;;;;14.68;7.32;;;;;;;;;;5059607;28;20075;-68
2022/07/04 04:18:05;;;;;;;12.00;7.60;;;13.70;99.90;;;;;;5058023;28;20043;-69
2022/07/04 04:20:31;;;;;;;19.92;6.97;;;;;;;;;;5055606;28;20435;-69
2022/07/04 04:22:56;;;;;;;13.43;6.22;;;16.00;99.90;;;;;;5061412;28;20072;-69
2022/07/04 04:25:22;;;;;;;14.40;6.70;;;;;;;;;;5058290;28;20072;-69
2022/07/04 04:27:48;;;;;;;16.35;7.13;;;13.80;99.90;;;;;;5061644;28;20040;-70
2022/07/04 04:30:14;;;;;;;20.77;6.90;;;;;;;;;;5064797;28;20085;-70
2022/07/04 04:32:40;;;;;;;19.67;6.65;;;;;;;;;;5061910;28;20385;-70
2022/07/04 04:35:06;;;;;;;15.43;6.68;;;;;;;;;;5055230;28;20207;-70
2022/07/04 04:37:32;;;;;;;17.10;6.85;;;14.30;99.90;;;;;;5052489;28;20036;-69
2022/07/04 04:39:58;;;;;;;23.20;5.85;;;;;;;;;;5071668;28;20488;-72
2022/07/04 04:42:24;;;;;;;14.07;5.65;;;;;;;;;;5063602;28;20036;-72
2022/07/04 04:44:51;;;;;;;13.65;6.25;;;;;;;;;;5063707;28;20044;-72
2022/07/04 04:47:18;;;;;;;17.33;7.35;;;;;;;;;;5071158;28;20040;-72
2022/07/04 04:49:44;;;;;;;15.82;6.07;;;;;;;;;;5054968;28;20033;-72
2022/07/04 04:52:11;;;;;;;13.23;6.30;;;;;;;;;;5064649;28;20040;-72
2022/07/04 04:54:37;;;;;;;20.38;6.20;;;;;;;;;;5042619;28;20064;-68
2022/07/04 04:57:03;;;;;;;13.48;5.80;;;16.10;99.90;;;;;;5054835;28;20098;-69
2022/07/04 04:59:29;;;;;;;15.55;5.72;;;;;;;;;;5055476;28;20052;-70
2022/07/04 05:01:58;;;;;;;13.77;5.80;;;15.60;99.90;;;;;;5038205;28;20045;-79
2022/07/04 05:04:25;;;;;;;18.90;5.93;;;;;;;;;;5059281;28;20037;-69
2022/07/04 05:06:50;;;;;;;11.43;6.15;;;14.60;99.90;;;;;;5058332;28;20481;-69
2022/07/04 05:09:17;;;;;;;19.25;6.20;;;;;;;;;;5062111;28;20037;-69
2022/07/04 05:11:43;;;;;;;11.13;5.18;;;;;;;;;;5065149;28;20123;-70
2022/07/04 05:14:09;;;;;;;13.02;5.25;;;;;;;;;;5068267;28;20469;-70
2022/07/04 05:16:35;;;;;;;14.98;5.15;;;;;;;;;;5065273;28;20044;-69
2022/07/04 05:19:01;;;;;;;11.68;5.05;;;;;;;;;;5062075;28;20045;-69
2022/07/04 05:21:28;;;;;;;12.25;5.35;;;16.20;99.90;;;;;;5056716;28;20083;-69
2022/07/04 05:23:54;;;;;;;15.15;5.40;;;15.60;99.90;;;;;;5053200;28;20048;-69
2022/07/04 05:26:20;;;;;;;14.05;5.47;;;;;;;;;;5066761;28;20064;-69
2022/07/04 05:28:46;;;;;;;11.00;5.15;;;;;;;;;;5066224;28;20476;-69
2022/07/04 05:31:12;;;;;;;13.52;5.15;;;;;;;;;;5070049;28;20044;-69
2022/07/04 05:33:38;;;;;;;14.30;5.20;;;;;;;;;;5051268;28;20044;-69
2022/07/04 05:36:04;;;;;;;15.88;5.03;;;16.30;99.90;;;;;;5037928;28;20044;-69
2022/07/04 05:38:30;;;;;;;16.85;4.88;;;16.20;99.90;;;;;;5052978;28;20076;-69
2022/07/04 05:40:56;;;;;;;13.40;5.00;;;15.50;99.90;;;;;;5058150;28;20072;-70
2022/07/04 05:43:22;;;;;;;15.02;5.45;;;16.90;99.90;;;;;;5071142;28;20040;-68
2022/07/04 05:45:50;;;;;;;16.92;6.32;;;15.30;99.90;;;;;;5058307;28;21392;-70
2022/07/04 05:48:16;;;;;;;15.32;5.70;;;17.00;99.90;;;;;;5076904;28;20041;-70
2022/07/04 05:50:42;;;;;;;12.85;5.43;;;;;;;;;;5055120;28;20036;-70
2022/07/04 05:53:08;;;;;;;15.27;5.47;;;;;;;;;;5066667;28;20037;-75
2022/07/04 05:55:34;;;;;;;16.60;5.63;;;17.40;99.90;;;;;;5068963;28;20048;-71
2022/07/04 05:58:01;;;;;;;15.25;5.25;;;;;;;;;;5053179;28;20045;-71
2022/07/04 06:00:27;;;;;;;16.50;6.13;;;15.70;99.90;;;;;;5015439;28;1112766;-71
2022/07/04 06:02:53;;;;;;;24.30;5.60;;;;;;;;;;5053948;28;20055;-71
2022/07/04 06:05:18;;;;;;;13.93;5.40;;;16.70;99.90;;;;;;5061573;28;20037;-71
2022/07/04 06:07:44;;;;;;;12.18;5.13;;;;;;;;;;5067794;28;20115;-71
2022/07/04 06:10:10;;;;;;;15.90;5.07;;;;;;;;;;5069574;28;20534;-71
2022/07/04 06:12:37;;;;;;;17.15;5.90;;;;;;;;;;5036826;28;20094;-71
2022/07/04 06:15:05;;;;;;;10.32;4.88;;;17.20;99.90;;;;;;5066400;28;20040;-69
2022/07/04 06:17:30;;;;;;;15.80;5.68;;;18.00;99.90;;;;;;5058168;28;20041;-70
2022/07/04 06:19:56;;;;;;;16.23;5.45;;;18.10;99.90;;;;;;5065554;28;20085;-70
2022/07/04 06:22:22;;;;;;;13.55;4.82;;;;;;;;;;5084885;28;20172;-70
2022/07/04 06:24:48;;;;;;;10.95;4.82;;;17.50;99.90;;;;;;5054050;28;20049;-70
2022/07/04 06:27:13;;;;;;;10.70;4.40;;;18.10;99.90;;;;;;5054123;28;20045;-70
2022/07/04 06:29:40;;;;;;;12.98;4.70;;;17.20;99.90;;;;;;5055453;28;20123;-70
2022/07/04 06:32:06;;;;;;;9.88;4.40;;;;;;;;;;5053026;28;20049;-69
2022/07/04 06:37:17;;;;;;;13.77;4.30;;;17.70;99.90;;;;;;5049588;28;20047;-69
2022/07/04 06:39:43;;;;;;;10.90;4.30;;;;;;;;;;5056411;28;20037;-68
2022/07/04 06:42:09;;;;;;;11.52;4.07;;;17.70;99.90;;;;;;5053015;28;20036;-69
2022/07/04 06:44:35;;;;;;;8.13;3.50;;;;;;;;;;5054083;28;20056;-68
2022/07/04 06:47:01;;;;;;;8.65;3.22;;;;;;;;;;5059130;28;20036;-69
2022/07/04 06:49:27;;;;;;;8.15;3.03;;;;;;;;;;5058553;28;20392;-69
2022/07/04 06:51:53;;;;;;;8.55;3.22;;;18.20;99.90;;;;;;5055507;28;20037;-69
2022/07/04 06:54:18;;;;;;;9.68;3.53;;;17.60;99.90;;;;;;5053786;28;20037;-69
2022/07/04 06:56:44;;;;;;;12.75;3.50;;;17.90;99.90;;;;;;5036910;28;20033;-69
2022/07/04 06:59:10;;;;;;;8.23;3.03;;;18.50;99.90;;;;;;5066142;28;20059;-69
2022/07/04 07:01:36;;;;;;;7.05;2.80;;;;;;;;;;5071949;28;20040;-69
2022/07/04 07:04:02;;;;;;;6.95;2.92;;;18.20;99.90;;;;;;5063691;28;20508;-69
2022/07/04 07:06:28;;;;;;;12.13;3.20;;;;;;;;;;5041381;28;20080;-69
2022/07/04 07:08:54;;;;;;;5.60;2.88;;;;;;;;;;5056160;28;20059;-69
2022/07/04 07:11:20;;;;;;;11.50;2.70;;;;;;;;;;5042128;28;20041;-68
2022/07/04 07:13:48;;;;;;;9.13;3.58;;;17.70;99.10;;;;;;5053198;28;20127;-68
2022/07/04 07:16:14;;;;;;;11.35;3.08;;;17.10;99.90;;;;;;5061286;28;20040;-69
2022/07/04 07:18:40;;;;;;;6.40;2.50;;;;;;;;;;5040645;28;20053;-69
2022/07/04 07:21:06;;;;;;;14.57;2.92;;;18.00;99.90;;;;;;5035660;28;20052;-69
2022/07/04 07:23:32;;;;;;;10.38;2.60;;;17.90;99.90;;;;;;5053198;28;20162;-69
2022/07/04 07:25:57;;;;;;;9.40;2.50;;;17.80;99.90;;;;;;5054794;28;20036;-69
2022/07/04 07:28:24;;;;;;;6.80;2.22;;;;;;;;;;5037503;28;20033;-69
2022/07/04 07:30:50;;;;;;;6.72;1.88;;;;;;;;;;5052958;28;20175;-69
2022/07/04 07:33:16;;;;;;;18.13;2.40;;;;;;;;;;5051842;28;20040;-69
2022/07/04 07:35:42;;;;;;;13.70;3.13;;;;;;;;;;5054043;28;20048;-68
2022/07/04 07:38:08;;;;;;;9.32;2.72;;;;;;;;;;5054900;28;20485;-68
2022/07/04 07:40:34;;;;;;;7.32;2.67;;;;;;;;;;5052868;28;20047;-68
2022/07/04 07:43:00;;;;;;;9.45;2.67;;;;;;;;;;5058956;28;20037;-69
2022/07/04 07:45:26;;;;;;;10.63;2.92;;;17.30;99.90;;;;;;5060592;28;20036;-68
2022/07/04 07:47:52;;;;;;;6.13;2.15;;;;;;;;;;5068321;28;20041;-69
2022/07/04 07:50:18;;;;;;;7.20;2.75;;;;;;;;;;5051948;28;20115;-69
2022/07/04 07:52:44;;;;;;;10.93;2.58;;;;;;;;;;5051663;28;20094;-69
2022/07/04 07:55:10;;;;;;;7.95;2.95;;;;;;;;;;5059588;28;20037;-69
2022/07/04 07:57:36;;;;;;;6.65;2.25;;;;;;;;;;5053766;28;20139;-70
2022/07/04 08:00:04;;;;;;;10.82;2.60;;;18.10;97.30;;;;;;5057307;28;20045;-69
2022/07/04 08:05:15;;;;;;;6.72;2.33;;;;;;;;;;5060535;28;20083;-69
2022/07/04 08:07:41;;;;;;;7.68;2.65;;;;;;;;;;5063667;28;20068;-69
2022/07/04 08:10:08;;;;;;;13.00;2.05;;;19.10;99.90;;;;;;5059906;28;20065;-69
2022/07/04 08:12:34;;;;;;;10.63;2.40;;;;;;;;;;5068035;28;20033;-69
2022/07/04 08:15:00;;;;;;;12.02;2.50;;;;;;;;;;5035896;28;20472;-68
2022/07/04 08:17:27;;;;;;;8.82;2.50;;;19.40;99.60;;;;;;5066333;28;20125;-69
2022/07/04 08:19:53;;;;;;;8.50;2.35;;;;;;;;;;5054789;28;20043;-68
2022/07/04 08:22:19;;;;;;;8.70;2.53;;;;;;;;;;5069672;28;20036;-69
2022/07/04 08:24:45;;;;;;;10.02;2.75;;;18.30;96.60;;;;;;5064712;28;20045;-69
2022/07/04 08:27:13;;;;;;;7.60;2.85;;;19.00;95.40;;;;;;5070523;28;20090;-69
2022/07/04 08:29:38;;;;;;;8.90;3.10;;;19.20;99.00;;;;;;5064430;28;20051;-69
2022/07/04 08:32:07;;;;;;;7.68;2.53;;;19.90;99.10;;;;;;5063183;28;20477;-69
2022/07/04 08:34:33;;;;;;;6.13;2.53;;;19.30;97.40;;;;;;5051674;28;20056;-68
2022/07/04 08:36:59;;;;;;;8.45;3.00;;;18.20;95.80;;;;;;5055757;28;20118;-69
2022/07/04 08:39:24;;;;;;;9.77;2.88;;;19.60;96.40;;;;;;5066491;28;20036;-68
2022/07/04 08:41:55;;;;;;;12.07;3.10;;;18.70;98.30;;;;;;5059673;28;20052;-69
2022/07/04 08:44:23;;;;;;;10.95;3.55;;;19.00;94.60;;;;;;5053151;28;20044;-69
2022/07/04 08:46:52;;;;;;;7.80;2.70;;;18.70;95.00;;;;;;5040432;28;20047;-69
2022/07/04 08:49:21;;;;;;;8.52;3.00;;;18.60;95.10;;;;;;5056644;28;20060;-69
2022/07/04 08:51:53;;;;;;;18.02;4.13;;;18.90;95.30;;;;;;5042340;28;20041;-69
2022/07/04 08:59:50;;;;;;;10.27;3.63;;;;;;;;;;5064653;28;20404;-69
2022/07/04 09:02:20;;;;;;;12.48;3.50;;;18.90;94.80;;;;;;5057413;28;20041;-69
2022/07/04 09:04:48;;;;;;;7.00;3.30;;;19.10;95.50;;;;;;5058048;28;20041;-69
2022/07/04 09:07:14;;;;;;;16.33;3.60;;;;;;;;;;5045907;28;20679;-69
2022/07/04 09:09:41;;;;;;;8.10;3.33;;;18.30;98.70;;;;;;5061645;28;20033;-69
2022/07/04 09:12:08;;;;;;;7.60;2.60;;;19.10;95.20;;;;;;5062424;28;20062;-69
2022/07/04 09:14:34;;;;;;;10.00;3.40;;;19.30;98.40;;;;;;5063560;28;20044;-69
2022/07/04 09:17:00;;;;;;;8.85;3.25;;;;;;;;;;5047834;28;20124;-69
2022/07/04 09:19:26;;;;;;;9.18;2.90;;;19.80;97.60;;;;;;5064881;28;20204;-69
2022/07/04 09:21:52;;;;;;;9.40;3.45;;;20.00;97.60;;;;;;5059699;28;20170;-69
2022/07/04 09:24:43;;;;;;;11.10;3.60;;;19.40;93.90;;;;;;5055532;28;20041;-69
2022/07/04 09:27:09;;;;;;;11.40;4.20;;;;;;;;;;5067312;28;20037;-69
2022/07/04 09:30:00;;;;;;;8.18;2.70;;;19.80;93.60;;;;;;5058930;28;20083;-69
2022/07/04 09:32:51;;;;;;;10.63;3.10;;;20.30;96.40;;;;;;5053963;28;20080;-69
2022/07/04 09:35:28;;;;;;;5.40;2.47;;;19.30;95.60;;;;;;5065997;28;20097;-69
2022/07/04 09:37:56;;;;;;;5.93;2.92;;;19.80;92.00;;;;;;5070472;28;20037;-68
2022/07/04 09:40:29;;;;;;;8.60;3.53;;;19.00;95.80;;;;;;5070227;28;20045;-69
2022/07/04 09:42:57;;;;;;;10.63;3.22;;;20.30;95.20;;;;;;5057115;28;20754;-69
2022/07/04 09:45:26;;;;;;;7.43;2.80;;;20.50;96.00;;;;;;5059013;28;20045;-69
2022/07/04 09:47:59;;;;;;;13.52;2.47;;;18.70;95.30;;;;;;5063932;28;20036;-69
2022/07/04 09:50:28;;;;;;;6.78;2.80;;;20.00;92.20;;;;;;5063211;28;20126;-69
2022/07/04 09:52:59;;;;;;;6.00;3.17;;;19.80;91.70;;;;;;5072076;28;20047;-69
2022/07/04 09:55:28;;;;;;;10.35;3.15;;;20.10;90.50;;;;;;5056683;28;20124;-69
2022/07/04 09:57:58;;;;;;;8.20;2.72;;;20.80;95.70;;;;;;5056120;28;20037;-69
2022/07/04 10:00:36;;;;;;;7.95;2.40;;;20.40;89.70;;;;;;5065689;28;20049;-69
2022/07/04 10:03:21;;;;;;;9.80;2.83;;;20.00;93.90;;;;;;5053732;28;20400;-69
2022/07/04 10:06:02;;;;;;;12.43;2.55;;;20.70;93.60;;;;;;5055800;28;20051;-69
2022/07/04 10:08:27;;;;;;;5.30;2.42;;;20.30;93.40;;;;;;5055950;28;20094;-69
2022/07/04 10:10:57;;;;;;;10.27;2.58;;;19.70;93.30;;;;;;5053516;28;20378;-69
2022/07/04 10:13:24;;;;;;;4.95;2.40;;;21.40;93.30;;;;;;5067516;28;20033;-69
2022/07/04 10:15:50;;;;;;;7.60;2.70;;;20.90;91.50;;;;;;5058411;28;20098;-70
2022/07/04 10:18:18;;;;;;;6.93;2.72;;;20.70;87.30;;;;;;5069979;28;20059;-70
2022/07/04 10:20:44;;;;;;;12.18;3.22;;;20.50;90.90;;;;;;5055693;28;20440;-68
2022/07/04 10:23:11;;;;;;;10.70;2.42;;;20.20;92.50;;;;;;5053553;28;20040;-69
2022/07/04 10:25:37;;;;;;;10.70;2.60;;;20.10;90.30;;;;;;5037527;28;20037;-69
2022/07/04 10:28:03;;;;;;;13.50;2.60;;;21.70;91.50;;;;;;5037732;28;20052;-69
2022/07/04 10:30:37;;;;;;;9.00;2.65;;;20.30;91.40;;;;;;5054250;28;20037;-70
2022/07/04 10:33:05;;;;;;;8.93;2.30;;;21.50;92.30;;;;;;5055166;28;20041;-69
2022/07/04 10:35:56;;;;;;;8.30;3.72;;;20.80;92.30;;;;;;5069195;28;20127;-68
2022/07/04 10:38:24;;;;;;;11.25;3.17;;;20.20;92.30;;;;;;5070931;28;20059;-70
2022/07/04 10:41:11;;;;;;;7.65;2.50;;;21.60;90.20;;;;;;5064393;28;20025;-70
2022/07/04 10:43:50;;;;;;;9.00;2.60;;;21.00;92.30;;;;;;5053703;28;20094;-70
2022/07/04 10:46:16;;;;;;;5.53;2.10;;;21.60;91.90;;;;;;5042418;28;20520;-69
2022/07/04 10:48:56;;;;;;;6.82;2.60;;;21.90;92.10;;;;;;5070470;28;20071;-70
2022/07/04 10:51:50;;;;;;;7.97;2.42;;;21.70;91.30;;;;;;5054432;28;20116;-68
2022/07/04 10:54:32;;;;;;;11.48;2.83;;;21.60;91.30;;;;;;5064596;28;20480;-69
2022/07/04 10:57:19;;;;;;;10.20;3.10;;;20.90;91.70;;;;;;5052404;28;20039;-69
2022/07/04 10:59:54;;;;;;;5.07;2.40;;;20.40;92.10;;;;;;5070968;28;20049;-69
2022/07/04 11:02:22;;;;;;;7.85;2.63;;;21.10;92.90;;;;;;5059024;28;20040;-70
2022/07/04 11:04:47;;;;;;;8.88;2.75;;;19.80;92.20;;;;;;5069093;28;20398;-68
2022/07/04 11:07:18;;;;;;;11.98;2.60;;;21.30;92.40;;;;;;5055012;28;20037;-68
2022/07/04 11:09:44;;;;;;;7.80;2.53;;;20.90;92.50;;;;;;5054702;28;20087;-70
2022/07/04 11:12:14;;;;;;;8.93;2.63;;;21.50;86.90;;;;;;5054255;28;20488;-70
2022/07/04 11:14:47;;;;;;;8.57;2.60;;;21.50;92.40;;;;;;5037017;28;20493;-70
2022/07/04 11:17:36;;;;;;;9.63;3.17;;;21.60;92.40;;;;;;5064202;28;20431;-70
2022/07/04 11:20:07;;;;;;;9.30;1.92;;;21.50;86.90;;;;;;5070805;28;20040;-70
2022/07/04 11:22:33;;;;;;;8.00;2.42;;;21.50;91.40;;;;;;5069139;28;20178;-69
2022/07/04 11:24:59;;;;;;;6.38;2.40;;;21.40;82.70;;;;;;5052256;28;20163;-68
2022/07/04 11:27:24;;;;;;;6.28;2.90;;;20.00;90.00;;;;;;5057569;28;20136;-68
2022/07/04 11:29:51;;;;;;;5.25;2.15;;;20.60;90.30;;;;;;5059655;28;20496;-69
2022/07/04 11:32:17;;;;;;;5.43;2.15;;;21.80;90.10;;;;;;5052168;28;20396;-68
2022/07/04 11:34:44;;;;;;;6.82;2.53;;;22.00;90.30;;;;;;5054032;28;20124;-69
2022/07/04 11:37:09;;;;;;;7.45;1.90;;;21.80;88.60;;;;;;5054737;28;20151;-68
2022/07/04 11:39:35;;;;;;;10.50;2.30;;;22.10;88.40;;;;;;5051874;28;20051;-69
2022/07/04 11:45:05;;;;;;;6.53;1.98;;;21.40;89.10;;;;;;5055185;28;20045;-69
2022/07/04 11:47:40;;;;;;;4.70;1.67;;;22.40;88.40;;;;;;5065719;28;20416;-69
2022/07/04 11:50:11;;;;;;;5.55;2.33;;;22.10;87.60;;;;;;5070650;28;20025;-68
2022/07/04 11:52:37;;;;;;;6.32;2.00;;;22.10;87.60;;;;;;5064811;28;20040;-69
2022/07/04 11:55:08;;;;;;;12.25;2.63;;;22.40;87.00;;;;;;5052803;28;20040;-68
2022/07/04 11:57:38;;;;;;;10.90;2.88;;;22.00;85.70;;;;;;5067917;28;20083;-68
2022/07/04 12:00:08;;;;;;;9.25;2.08;;;22.90;80.20;;;;;;5056840;28;20052;-68
2022/07/04 12:02:34;;;;;;;2.25;1.45;;;22.60;85.60;;;;;;5068015;28;20127;-68
2022/07/04 12:05:03;;;;;;;7.25;1.70;;;23.00;85.30;;;;;;5063493;28;20072;-68
2022/07/04 12:07:34;;;;;;;5.88;1.60;;;22.80;86.30;;;;;;5043021;28;20098;-68
2022/07/04 12:10:22;;;;;;;7.47;2.03;;;22.20;75.50;;;;;;5052883;28;20076;-68
2022/07/04 12:13:12;;;;;;;8.35;1.98;;;21.60;86.50;;;;;;5057553;28;20124;-68
2022/07/04 12:15:44;;;;;;;9.52;2.30;;;21.20;87.30;;;;;;5078863;28;20056;-68
2022/07/04 12:18:19;;;;;;;5.33;2.20;;;21.80;78.30;;;;;;5065667;28;20033;-68
2022/07/04 12:20:50;;;;;;;6.28;1.98;;;22.40;89.30;;;;;;5053422;28;20127;-68
2022/07/04 12:23:16;;;;;;;7.00;1.80;;;21.20;87.90;;;;;;5069635;28;20405;-69
2022/07/04 12:25:45;;;;;;;5.68;2.05;;;20.40;87.40;;;;;;5073345;28;20072;-69
2022/07/04 12:28:16;;;;;;;7.00;1.98;;;21.10;80.40;;;;;;5049068;28;20045;-68
2022/07/04 12:30:51;;;;;;;10.07;2.50;;;20.50;88.30;;;;;;5069213;28;20107;-68
2022/07/04 12:33:20;;;;;;;8.30;2.97;;;21.70;87.80;;;;;;5040378;28;20480;-68
2022/07/04 12:35:47;;;;;;;9.45;2.50;;;22.30;88.70;;;;;;5055097;28;20036;-68
2022/07/04 12:38:23;;;;;;;10.98;2.00;;;22.30;89.20;;;;;;5065971;28;20037;-69
2022/07/04 12:40:52;;;;;;;6.82;2.30;;;20.80;88.00;;;;;;5072983;28;20082;-68
2022/07/04 12:43:18;;;;;;;6.80;2.10;;;;;;;;;;5066154;28;20045;-68
2022/07/04 12:45:46;;;;;;;9.27;2.00;;;21.30;88.10;;;;;;5056204;28;20072;-69
2022/07/04 12:48:22;;;;;;;5.97;1.80;;;22.40;88.30;;;;;;5067336;28;20033;-69
2022/07/04 12:50:49;;;;;;;5.90;1.35;;;22.70;88.10;;;;;;5071640;28;20033;-69
2022/07/04 12:53:15;;;;;;;9.05;1.75;;;22.10;78.10;;;;;;5071584;28;20033;-68
2022/07/04 12:55:43;;;;;;;5.13;1.75;;;22.80;87.90;;;;;;5071696;28;20093;-68
2022/07/04 12:58:09;;;;;;;6.82;1.33;;;22.60;88.00;;;;;;5045373;28;20040;-68
2022/07/04 13:00:35;;;;;;;5.65;1.70;;;23.10;87.00;;;;;;5071314;28;20059;-68
2022/07/04 13:03:01;;;;;;;6.63;1.65;;;22.30;85.90;;;;;;5071468;28;20101;-69
2022/07/04 13:05:28;;;;;;;5.32;1.75;;;;;;;;;;5056074;28;20071;-68
2022/07/04 13:07:53;;;;;;;3.70;1.52;;;23.30;86.70;;;;;;5045891;28;20037;-69
2022/07/04 13:10:19;;;;;;;7.22;1.40;;;;;;;;;;5073967;28;20157;-69
2022/07/04 13:12:45;;;;;;;10.68;1.75;;;21.60;85.70;;;;;;5071229;28;20041;-69
2022/07/04 13:15:11;;;;;;;6.65;1.40;;;21.70;86.10;;;;;;5056345;28;20041;-67
2022/07/04 13:17:37;;;;;;;8.68;1.50;;;22.40;86.40;;;;;;5068673;28;20417;-69
2022/07/04 13:20:03;;;;;;;7.90;1.52;;;22.30;86.50;;;;;;5072555;28;20051;-70
2022/07/04 13:22:29;;;;;;;4.32;1.30;;;21.40;86.00;;;;;;5070143;28;20051;-70
2022/07/04 13:24:55;;;;;;;4.72;1.70;;;22.80;86.90;;;;;;5089086;28;20079;-74
2022/07/04 13:27:21;;;;;;;6.57;1.70;;;21.50;86.50;;;;;;5041023;28;20071;-70
2022/07/04 13:29:46;;;;;;;8.88;1.52;;;22.40;87.00;;;;;;5065796;28;20032;-70
2022/07/04 13:32:12;;;;;;;6.53;1.80;;;23.10;86.20;;;;;;5057657;28;20033;-70
2022/07/04 13:34:38;;;;;;;5.97;1.40;;;;;;;;;;5063613;28;20036;-70
2022/07/04 13:37:05;;;;;;;6.53;1.48;;;22.50;75.30;;;;;;5070947;28;20033;-71
2022/07/04 13:39:31;;;;;;;7.68;2.10;;;23.10;85.60;;;;;;5060936;28;20409;-71